Abingdon, IL (61410)

1:41 PM CST on February 06, 2016 (GMT -0600)
N9WRG | | Change Station
CLOSE
Current Station
Personal Weather Station
Location: Gilson, IL
Elevation: 682 ft
Nearby Weather Stations

Elev 682 ft 40.82 °N, 90.31 °W | Updated 2 seconds ago

Clear
Clear
45.7 °F
Feels Like 42 °F
N
8.0
Wind Variable Wind from WSW
Gusts 13.0 mph

Today
High -- | Low -- °F
--% Chance of Precip.
Yesterday
High -- | Low -- °F
Precip. -- in
Pressure 30.19 in
Visibility 10.0 miles
Clouds Clear
Windchill 42 °F
Dew Point 31 °F
Humidity 57%
Rainfall 0.00 in
Snow Depth Not available.
7:07 AM 5:24 PM
Waning Crescent, 4% visible
METAR KGBG 061915Z AUTO 23007G14KT 10SM CLR 07/M02 A3019 RMK AO2 T00711019
Pressure 30.19 in
Visibility 10.0 miles
Clouds Clear
Windchill 42 °F
Dew Point 31 °F
Humidity 57%
Rainfall 0.00 in
Snow Depth Not available.
7:07 AM 5:24 PM
Waning Crescent, 4% visible
METAR KGBG 061915Z AUTO 23007G14KT 10SM CLR 07/M02 A3019 RMK AO2 T00711019

10-Day Weather Forecast

Almanac

Astronomy

Feb. 06, 2016 Rise Set
Actual Time
Civil Twilight
Nautical Twilight
Astronomical Twilight
Moon
Length of Visible Light
Length of Day
Tomorrow will be .
, % of the Moon is Illuminated

Today's Extremes

State Highs State Lows

Community

WunderPhotos

Upload Photos

1,891,037 photos uploaded!

WunderBlog® & News

Nearby

Air Quality

  Air Quality AQ Index Pollutant
Not available.

Snow Depth

Station Depth Elevation

Earthquake Activity

City Distance Mag. Time & Date
Minimum magnitude displayed is 2.5.

Coastal Water Temperatures

Place Temperature

Stations

Nearby Weather Stations

Station Location Temp. Windchill Dew Point Humidity Wind Precip. Elev Updated Type
                   

Watches & Warnings

There are currently no watches in effect.